Time;durP1;ratioP1;P1;durP2;ratioP2;P2;SDS_P1;SDS_P2;PMS_P1;PMS_P2;Temp;Humidity;BMP_temperature;BMP_pressure;BME280_temperature;BME280_humidity;BME280_pressure;Samples;Min_cycle;Max_cycle;Signal;HPM_P1;HPM_P2
2024/01/01 00:01:44;;;;;;;4.32;1.98;;;;;;;;;;10397658;28;20042;-74
2024/01/01 00:06:47;;;;;;;2.60;1.77;;;;;;;;;;10401928;28;20044;-73
2024/01/01 00:11:51;;;;;;;3.90;1.77;;;;;;;;;;10405978;28;20073;-74
2024/01/01 00:16:55;;;;;;;3.95;2.03;;;;;;;;;;10405634;28;20049;-73
2024/01/01 00:22:02;;;;;;;2.37;1.60;;;;;;;;;;10399630;28;20057;-73
2024/01/01 00:27:08;;;;;;;4.43;1.73;;;;;;;;;;10398054;28;20049;-73
2024/01/01 00:32:13;;;;;;;5.60;2.45;;;;;;;;;;10398854;28;20083;-73
2024/01/01 00:37:16;;;;;;;6.18;1.90;;;;;;;;;;10396624;28;20048;-73
2024/01/01 00:42:20;;;;;;;2.67;1.38;;;;;;;;;;10399519;28;20049;-73
2024/01/01 00:47:24;;;;;;;3.22;1.48;;;;;;;;;;10400838;28;20042;-73
2024/01/01 00:52:28;;;;;;;4.25;1.48;;;;;;;;;;10386745;28;20061;-73
2024/01/01 00:57:31;;;;;;;4.13;1.55;;;;;;;;;;10382877;28;20053;-73
2024/01/01 01:02:36;;;;;;;2.92;1.40;;;;;;;;;;10377777;28;20053;-73
2024/01/01 01:07:39;;;;;;;4.30;1.40;;;;;;;;;;10383626;28;20042;-73
2024/01/01 01:12:42;;;;;;;4.22;1.55;;;;;;;;;;10382483;28;20049;-73
2024/01/01 01:17:47;;;;;;;5.90;1.48;;;;;;;;;;10381453;28;20042;-73
2024/01/01 01:22:50;;;;;;;3.88;1.52;;;;;;;;;;10398202;28;20447;-73
2024/01/01 01:27:53;;;;;;;3.60;1.38;;;;;;;;;;10394091;28;20467;-73
2024/01/01 01:32:58;;;;;;;9.77;2.83;;;;;;;;;;10394614;28;20050;-73
2024/01/01 01:38:01;;;;;;;6.05;1.77;;;;;;;;;;10391272;28;20038;-73
2024/01/01 01:43:19;;;;;;;4.68;1.92;;;;;;;;;;10377128;28;20056;-73
2024/01/01 01:48:23;;;;;;;6.53;2.20;;;;;;;;;;10394363;28;20116;-73
2024/01/01 01:53:28;;;;;;;4.28;1.83;;;;;;;;;;10397869;28;20125;-73
2024/01/01 01:58:32;;;;;;;11.50;2.92;;;;;;;;;;10393926;28;20049;-73
2024/01/01 02:03:37;;;;;;;4.70;1.80;;;;;;;;;;10377685;28;20121;-74
2024/01/01 02:08:40;;;;;;;2.83;1.40;;;;;;;;;;10376732;28;20091;-73
2024/01/01 02:13:43;;;;;;;3.30;1.58;;;;;;;;;;10371172;28;20045;-73
2024/01/01 02:18:48;;;;;;;6.65;2.00;;;;;;;;;;10363154;28;20042;-73
2024/01/01 02:23:52;;;;;;;5.57;1.50;;;;;;;;;;10389469;28;20435;-73
2024/01/01 02:28:56;;;;;;;5.22;1.88;;;;;;;;;;10379224;28;20163;-73
2024/01/01 02:33:59;;;;;;;6.80;2.10;;;;;;;;;;10395863;28;20050;-74
2024/01/01 02:39:06;;;;;;;5.50;2.10;;;;;;;;;;10386582;28;20120;-73
2024/01/01 02:44:09;;;;;;;7.38;1.63;;;;;;;;;;10390161;28;20565;-74
2024/01/01 02:49:12;;;;;;;4.13;1.75;;;;;;;;;;10390720;28;20119;-73
2024/01/01 02:54:17;;;;;;;6.38;1.70;;;;;;;;;;10400522;28;20045;-73
2024/01/01 02:59:20;;;;;;;6.85;1.92;;;;;;;;;;10377270;28;20571;-74
2024/01/01 03:04:24;;;;;;;5.45;1.75;;;;;;;;;;10395190;28;20071;-73
2024/01/01 03:09:29;;;;;;;5.63;1.90;;;;;;;;;;10389522;28;20037;-73
2024/01/01 03:14:32;;;;;;;6.30;1.55;;;;;;;;;;10396194;28;20041;-73
2024/01/01 03:19:35;;;;;;;4.82;1.70;;;;;;;;;;10379397;28;20685;-73
2024/01/01 03:24:40;;;;;;;8.98;2.30;;;;;;;;;;10396106;28;20050;-74
2024/01/01 03:29:43;;;;;;;5.97;1.75;;;;;;;;;;10383150;28;20037;-73
2024/01/01 03:34:46;;;;;;;2.83;1.35;;;;;;;;;;10404500;28;20049;-73
2024/01/01 03:39:51;;;;;;;3.78;1.20;;;;;;;;;;10403403;28;20132;-73
2024/01/01 03:44:54;;;;;;;3.83;1.40;;;;;;;;;;10403281;28;20045;-73
2024/01/01 03:49:57;;;;;;;10.35;2.00;;;;;;;;;;10396896;28;20041;-73
2024/01/01 03:55:03;;;;;;;7.68;2.05;;;;;;;;;;10376232;28;20612;-73
2024/01/01 04:00:09;;;;;;;5.93;2.00;;;;;;;;;;10396709;28;20088;-73
2024/01/01 04:05:13;;;;;;;6.87;2.30;;;;;;;;;;10378184;28;20058;-73
2024/01/01 04:10:19;;;;;;;5.53;1.80;;;;;;;;;;10378724;28;20037;-73
2024/01/01 04:15:23;;;;;;;8.02;1.73;;;;;;;;;;10393204;28;20037;-73
2024/01/01 04:20:27;;;;;;;3.47;1.52;;;;;;;;;;10398011;28;20052;-73
2024/01/01 04:25:31;;;;;;;5.60;2.00;;;;;;;;;;10397311;28;20051;-73
2024/01/01 04:30:35;;;;;;;5.25;1.35;;;;;;;;;;10401667;28;20694;-73
2024/01/01 04:35:39;;;;;;;6.10;1.50;;;;;;;;;;10398358;28;20475;-73
2024/01/01 04:40:44;;;;;;;5.25;1.63;;;;;;;;;;10397318;28;20494;-73
2024/01/01 04:45:47;;;;;;;6.30;2.03;;;;;;;;;;10398122;28;20509;-73
2024/01/01 04:50:50;;;;;;;7.07;1.95;;;;;;;;;;10394668;28;20041;-73
2024/01/01 04:55:55;;;;;;;4.68;1.73;;;;;;;;;;10388999;28;20045;-73
2024/01/01 05:00:58;;;;;;;7.43;1.98;;;;;;;;;;10396198;28;20498;-73
2024/01/01 05:06:01;;;;;;;4.95;1.63;;;;;;;;;;10394282;28;20128;-73
2024/01/01 05:11:07;;;;;;;12.70;2.47;;;;;;;;;;10395477;28;20069;-73
2024/01/01 05:16:10;;;;;;;6.93;2.17;;;;;;;;;;10391302;28;20049;-73
2024/01/01 05:21:13;;;;;;;6.63;1.85;;;;;;;;;;10391141;28;20073;-73
2024/01/01 05:26:18;;;;;;;6.53;2.13;;;;;;;;;;10394197;28;20041;-73
2024/01/01 05:31:21;;;;;;;7.32;2.35;;;;;;;;;;10400536;28;20120;-73
2024/01/01 05:36:25;;;;;;;12.52;2.60;;;;;;;;;;10381610;28;20045;-73
2024/01/01 05:41:30;;;;;;;9.40;1.98;;;;;;;;;;10400160;28;20041;-73
2024/01/01 05:46:33;;;;;;;13.27;2.92;;;;;;;;;;10394431;28;20046;-73
2024/01/01 05:51:36;;;;;;;8.57;2.75;;;;;;;;;;10391431;28;20045;-73
2024/01/01 05:56:42;;;;;;;6.28;2.08;;;;;;;;;;10390986;28;20045;-73
2024/01/01 06:01:45;;;;;;;6.33;1.90;;;;;;;;;;10391796;28;20035;-73
2024/01/01 06:06:48;;;;;;;12.15;3.20;;;;;;;;;;10397720;28;20075;-73
2024/01/01 06:11:53;;;;;;;7.03;1.90;;;;;;;;;;10390264;28;20048;-73
2024/01/01 06:16:57;;;;;;;8.20;2.80;;;;;;;;;;10390607;28;20041;-73
2024/01/01 06:22:00;;;;;;;9.25;2.63;;;;;;;;;;10387714;28;20487;-73
2024/01/01 06:27:05;;;;;;;11.25;2.47;;;;;;;;;;10393800;28;20049;-73
2024/01/01 06:32:08;;;;;;;8.13;2.20;;;;;;;;;;10393809;28;20068;-73
2024/01/01 06:37:12;;;;;;;15.05;3.13;;;;;;;;;;10394898;28;20042;-73
2024/01/01 06:42:17;;;;;;;8.55;2.00;;;;;;;;;;10398671;28;20049;-73
2024/01/01 06:47:22;;;;;;;8.90;2.00;;;;;;;;;;10378994;28;20410;-73
2024/01/01 06:52:25;;;;;;;11.63;2.40;;;;;;;;;;10396536;28;20061;-73
2024/01/01 06:57:30;;;;;;;10.95;2.00;;;;;;;;;;10401016;28;20049;-73
2024/01/01 07:02:33;;;;;;;8.85;2.55;;;;;;;;;;10389890;28;20056;-73
2024/01/01 07:07:36;;;;;;;8.52;1.90;;;;;;;;;;10396981;28;20037;-73
2024/01/01 07:12:41;;;;;;;6.90;1.58;;;;;;;;;;10396115;28;20470;-73
2024/01/01 07:17:44;;;;;;;10.13;3.45;;;;;;;;;;10392025;28;20575;-73
2024/01/01 07:22:47;;;;;;;7.57;2.25;;;;;;;;;;10387702;28;20045;-73
2024/01/01 07:27:53;;;;;;;7.82;2.03;;;;;;;;;;10392631;28;20050;-73
2024/01/01 07:32:56;;;;;;;7.38;2.00;;;;;;;;;;10395749;28;20045;-73
2024/01/01 07:38:00;;;;;;;5.35;1.58;;;;;;;;;;10390492;28;20060;-73
2024/01/01 07:43:05;;;;;;;6.68;1.98;;;;;;;;;;10398400;28;20037;-73
2024/01/01 07:48:09;;;;;;;7.78;2.40;;;;;;;;;;10398532;28;20145;-73
2024/01/01 07:53:13;;;;;;;8.20;2.15;;;;;;;;;;10392122;28;20501;-73
2024/01/01 07:58:17;;;;;;;6.50;2.33;;;;;;;;;;10383666;28;20052;-73
2024/01/01 08:03:21;;;;;;;8.63;2.30;;;;;;;;;;10398082;28;20051;-73
2024/01/01 08:08:24;;;;;;;5.85;2.10;;;;;;;;;;10398663;28;20626;-73
2024/01/01 08:13:29;;;;;;;8.18;2.22;;;;;;;;;;10399438;28;20044;-73
2024/01/01 08:18:32;;;;;;;10.98;2.45;;;;;;;;;;10393714;28;20496;-73
2024/01/01 08:23:36;;;;;;;5.68;1.92;;;;;;;;;;10392115;28;20103;-73
2024/01/01 08:28:40;;;;;;;11.02;2.55;;;;;;;;;;10399884;28;20033;-73
2024/01/01 08:33:44;;;;;;;8.93;2.17;;;;;;;;;;10396991;28;20053;-73
2024/01/01 08:38:47;;;;;;;7.88;2.25;;;;;;;;;;10400266;28;20054;-74
2024/01/01 08:43:56;;;;;;;10.05;2.17;;;;;;;;;;10394662;28;20145;-73
2024/01/01 08:49:00;;;;;;;11.90;2.80;;;;;;;;;;10395909;28;20043;-73
2024/01/01 08:54:05;;;;;;;8.77;2.53;;;;;;;;;;10398243;28;20049;-73
2024/01/01 08:59:10;;;;;;;12.47;2.40;;;;;;;;;;10398932;28;20047;-73
2024/01/01 09:04:13;;;;;;;6.68;1.63;;;;;;;;;;10396317;28;20049;-74
2024/01/01 09:09:16;;;;;;;6.28;1.75;;;;;;;;;;10378558;28;20426;-73
2024/01/01 09:14:21;;;;;;;6.45;1.50;;;;;;;;;;10397158;28;20688;-73
2024/01/01 09:19:24;;;;;;;11.85;2.50;;;;;;;;;;10398521;28;20119;-74
2024/01/01 09:24:27;;;;;;;16.63;2.90;;;;;;;;;;10389946;28;20061;-73
2024/01/01 09:29:32;;;;;;;6.13;1.50;;;;;;;;;;10392351;28;20033;-73
2024/01/01 09:34:35;;;;;;;5.75;1.70;;;;;;;;;;10371853;28;20510;-73
2024/01/01 09:39:38;;;;;;;7.53;1.92;;;;;;;;;;10387544;28;20068;-73
2024/01/01 09:44:48;;;;;;;7.63;2.05;;;;;;;;;;10389814;28;20048;-73
2024/01/01 09:49:52;;;;;;;6.15;2.25;;;;;;;;;;10393167;28;20457;-73
2024/01/01 09:54:55;;;;;;;8.30;1.75;;;;;;;;;;10397595;28;20041;-73
2024/01/01 10:00:05;;;;;;;7.20;1.60;;;;;;;;;;10391301;28;20059;-73
2024/01/01 10:05:14;;;;;;;7.45;1.65;;;;;;;;;;10393013;28;20038;-73
2024/01/01 10:10:28;;;;;;;7.85;2.33;;;;;;;;;;10385270;28;20109;-73
2024/01/01 10:15:32;;;;;;;5.63;1.65;;;;;;;;;;10386197;28;20049;-73
2024/01/01 10:20:35;;;;;;;6.78;2.13;;;;;;;;;;10391766;28;20091;-73
2024/01/01 10:25:39;;;;;;;8.15;1.98;;;;;;;;;;10392873;28;20053;-73
2024/01/01 10:30:46;;;;;;;7.38;1.70;;;;;;;;;;10383643;28;20037;-73
2024/01/01 10:35:52;;;;;;;6.00;2.00;;;;;;;;;;10387634;28;20053;-73
2024/01/01 10:40:56;;;;;;;11.02;2.47;;;;;;;;;;10381967;28;20050;-73
2024/01/01 10:46:05;;;;;;;8.13;2.25;;;;;;;;;;10373308;28;20037;-73
2024/01/01 10:51:29;;;;;;;9.07;2.30;;;;;;;;;;10389336;28;20049;-73
2024/01/01 10:56:40;;;;;;;7.00;1.98;;;;;;;;;;10389674;28;20049;-73
2024/01/01 11:01:46;;;;;;;8.75;1.90;;;;;;;;;;10386635;28;20053;-73
2024/01/01 11:06:49;;;;;;;8.63;2.27;;;;;;;;;;10392032;28;20051;-73
2024/01/01 11:11:53;;;;;;;8.90;2.10;;;;;;;;;;10397108;28;20045;-73
2024/01/01 11:17:02;;;;;;;7.30;1.88;;;;;;;;;;10389160;28;20049;-73
2024/01/01 11:22:34;;;;;;;9.88;2.47;;;;;;;;;;10397263;28;20048;-73
2024/01/01 11:27:47;;;;;;;10.65;2.80;;;;;;;;;;10354006;28;20898;-73
2024/01/01 11:32:51;;;;;;;6.93;2.38;;;;;;;;;;10396074;28;20132;-73
2024/01/01 11:37:59;;;;;;;5.78;2.03;;;;;;;;;;10375073;28;20680;-73
2024/01/01 11:43:07;;;;;;;6.32;2.13;;;;;;;;;;10401726;28;20398;-73
2024/01/01 11:48:12;;;;;;;6.63;2.03;;;;;;;;;;10403908;28;20053;-73
2024/01/01 11:53:16;;;;;;;12.95;2.63;;;;;;;;;;10383698;28;20053;-73
2024/01/01 11:58:19;;;;;;;8.90;2.22;;;;;;;;;;10388487;28;20088;-73
2024/01/01 12:03:24;;;;;;;11.48;2.90;;;;;;;;;;10380829;28;20391;-73
2024/01/01 12:08:27;;;;;;;6.68;2.50;;;;;;;;;;10396086;28;20057;-73
2024/01/01 12:13:30;;;;;;;9.48;3.00;;;;;;;;;;10397681;28;20122;-74
2024/01/01 12:18:36;;;;;;;9.38;2.40;;;;;;;;;;10391342;28;20052;-74
2024/01/01 12:23:39;;;;;;;10.07;2.92;;;;;;;;;;10393501;28;20615;-74
2024/01/01 12:28:43;;;;;;;6.30;2.67;;;;;;;;;;10398333;28;20051;-75
2024/01/01 12:33:51;;;;;;;6.70;2.08;;;;;;;;;;10396994;28;20076;-74
2024/01/01 12:38:55;;;;;;;11.68;2.65;;;;;;;;;;10400384;28;20058;-74
2024/01/01 12:43:59;;;;;;;10.10;2.70;;;;;;;;;;10402060;28;20510;-74
2024/01/01 12:49:04;;;;;;;8.48;2.75;;;;;;;;;;10399207;28;20067;-74
2024/01/01 12:54:07;;;;;;;12.63;2.33;;;;;;;;;;10397243;28;20069;-74
2024/01/01 12:59:11;;;;;;;9.65;2.72;;;;;;;;;;10401956;28;20049;-74
2024/01/01 13:04:15;;;;;;;11.32;2.78;;;;;;;;;;10398210;28;20057;-74
2024/01/01 13:09:18;;;;;;;10.60;2.15;;;;;;;;;;10397371;28;20053;-74
2024/01/01 13:14:22;;;;;;;10.60;2.90;;;;;;;;;;10402239;28;20049;-74
2024/01/01 13:19:26;;;;;;;9.18;3.00;;;;;;;;;;10378194;28;20526;-74
2024/01/01 13:24:30;;;;;;;7.90;2.30;;;;;;;;;;10395503;28;20046;-74
2024/01/01 13:29:33;;;;;;;12.85;3.40;;;;;;;;;;10394377;28;20045;-74
2024/01/01 13:34:38;;;;;;;11.38;3.10;;;;;;;;;;10395285;28;20398;-74
2024/01/01 13:39:41;;;;;;;14.60;3.00;;;;;;;;;;10400331;28;20529;-74
2024/01/01 13:44:45;;;;;;;11.93;3.20;;;;;;;;;;10397631;28;20587;-74
2024/01/01 13:49:50;;;;;;;9.73;3.13;;;;;;;;;;10398944;28;20063;-74
2024/01/01 13:54:53;;;;;;;13.65;3.22;;;;;;;;;;10391287;28;20049;-74
2024/01/01 13:59:56;;;;;;;6.22;2.97;;;;;;;;;;10395627;28;20206;-74
2024/01/01 14:05:04;;;;;;;11.30;2.60;;;;;;;;;;10397868;28;20041;-74
2024/01/01 14:10:08;;;;;;;8.20;2.35;;;;;;;;;;10400125;28;20127;-74
2024/01/01 14:15:11;;;;;;;14.27;2.65;;;;;;;;;;10396752;28;20046;-74
2024/01/01 14:20:16;;;;;;;9.88;3.00;;;;;;;;;;10400238;28;20037;-74
2024/01/01 14:25:19;;;;;;;9.88;2.85;;;;;;;;;;10393726;28;20065;-74
2024/01/01 14:30:23;;;;;;;17.35;3.13;;;;;;;;;;10397927;28;20057;-74
2024/01/01 14:35:28;;;;;;;6.38;2.28;;;;;;;;;;10396164;28;20042;-73
2024/01/01 14:40:31;;;;;;;10.30;3.30;;;;;;;;;;10396300;28;20046;-74
2024/01/01 14:45:35;;;;;;;9.43;3.20;;;;;;;;;;10394445;28;20052;-74
2024/01/01 14:50:39;;;;;;;7.55;2.35;;;;;;;;;;10399135;28;21821;-74
2024/01/01 14:55:43;;;;;;;13.88;4.03;;;;;;;;;;10402773;28;20506;-74
2024/01/01 15:00:47;;;;;;;12.60;3.45;;;;;;;;;;10408327;28;20121;-74
2024/01/01 15:05:52;;;;;;;11.30;3.90;;;;;;;;;;10404321;28;20045;-74
2024/01/01 15:10:57;;;;;;;18.45;5.93;;;;;;;;;;10409792;28;20060;-74
2024/01/01 15:16:00;;;;;;;15.30;5.03;;;;;;;;;;10391945;28;20068;-74
2024/01/01 15:21:05;;;;;;;15.43;4.80;;;;;;;;;;10400436;28;20402;-74
2024/01/01 15:26:11;;;;;;;7.20;2.65;;;;;;;;;;10398530;28;20045;-74
2024/01/01 15:31:17;;;;;;;8.40;2.72;;;;;;;;;;10446344;23;20128;-73
2024/01/01 15:36:21;;;;;;;8.57;2.17;;;;;;;;;;10448633;28;20057;-73
2024/01/01 15:41:24;;;;;;;16.40;3.13;;;;;;;;;;10434308;28;20044;-73
2024/01/01 15:46:28;;;;;;;8.23;2.33;;;;;;;;;;10438409;28;20038;-73
2024/01/01 15:51:32;;;;;;;12.32;2.88;;;;;;;;;;10443075;28;20438;-73
2024/01/01 15:56:41;;;;;;;14.10;2.78;;;;;;;;;;10421115;28;20037;-74
2024/01/01 16:01:44;;;;;;;8.75;2.92;;;;;;;;;;10436702;28;20048;-73
2024/01/01 16:06:48;;;;;;;11.30;2.80;;;;;;;;;;10424793;28;20166;-73
2024/01/01 16:11:53;;;;;;;9.32;3.03;;;;;;;;;;10434818;28;20693;-74
2024/01/01 16:16:56;;;;;;;14.02;2.75;;;;;;;;;;10439227;28;20072;-73
2024/01/01 16:22:01;;;;;;;8.60;2.50;;;;;;;;;;10440274;28;20059;-73
2024/01/01 16:27:05;;;;;;;11.43;3.17;;;;;;;;;;10445295;28;20108;-73
2024/01/01 16:32:08;;;;;;;10.25;2.95;;;;;;;;;;10441155;28;20052;-73
2024/01/01 16:37:12;;;;;;;11.25;2.70;;;;;;;;;;10438850;28;20056;-73
2024/01/01 16:42:17;;;;;;;11.57;2.63;;;;;;;;;;10435681;28;20051;-74
2024/01/01 16:47:21;;;;;;;8.88;2.40;;;;;;;;;;10436585;28;20045;-74
2024/01/01 16:52:25;;;;;;;9.15;2.35;;;;;;;;;;10433235;28;20056;-73
2024/01/01 16:57:30;;;;;;;16.50;3.00;;;;;;;;;;10430955;28;20502;-73
2024/01/01 17:02:34;;;;;;;9.57;2.92;;;;;;;;;;10431435;28;20041;-73
2024/01/01 17:07:38;;;;;;;10.35;2.40;;;;;;;;;;10432716;28;20115;-74
2024/01/01 17:12:42;;;;;;;10.38;2.13;;;;;;;;;;10428744;28;20064;-73
2024/01/01 17:17:45;;;;;;;6.22;1.92;;;;;;;;;;10425418;28;20045;-73
2024/01/01 17:22:49;;;;;;;6.63;1.65;;;;;;;;;;10426726;28;20057;-73
2024/01/01 17:27:56;;;;;;;13.05;3.58;;;;;;;;;;10433035;28;20041;-73
2024/01/01 17:32:59;;;;;;;9.30;2.50;;;;;;;;;;10432046;28;20653;-73
2024/01/01 17:38:04;;;;;;;11.13;2.65;;;;;;;;;;10438908;28;20103;-73
2024/01/01 17:43:07;;;;;;;12.00;2.92;;;;;;;;;;10433982;28;20048;-73
2024/01/01 17:48:10;;;;;;;10.77;2.97;;;;;;;;;;10419307;28;20052;-74
2024/01/01 17:53:15;;;;;;;10.05;3.58;;;;;;;;;;10439761;28;20380;-74
2024/01/01 17:58:19;;;;;;;11.48;3.10;;;;;;;;;;10425729;28;20048;-74
2024/01/01 18:03:22;;;;;;;9.43;2.53;;;;;;;;;;10428564;28;20084;-74
2024/01/01 18:08:26;;;;;;;10.32;2.03;;;;;;;;;;10432743;28;20041;-74
2024/01/01 18:13:30;;;;;;;7.28;1.73;;;;;;;;;;10428887;28;20449;-74
2024/01/01 18:18:34;;;;;;;6.30;1.90;;;;;;;;;;10428491;28;20045;-74
2024/01/01 18:23:39;;;;;;;9.27;1.75;;;;;;;;;;10432653;28;20052;-74
2024/01/01 18:28:42;;;;;;;9.77;2.88;;;;;;;;;;10430849;28;20647;-74
2024/01/01 18:33:46;;;;;;;9.73;2.50;;;;;;;;;;10425914;28;20056;-74
2024/01/01 18:38:51;;;;;;;7.88;1.85;;;;;;;;;;10425066;28;20087;-74
2024/01/01 18:43:55;;;;;;;13.40;2.55;;;;;;;;;;10427107;28;20045;-74
2024/01/01 18:48:58;;;;;;;12.55;2.55;;;;;;;;;;10421352;28;20055;-74
2024/01/01 18:54:03;;;;;;;7.85;2.70;;;;;;;;;;10406350;28;20048;-74
2024/01/01 18:59:06;;;;;;;7.20;2.35;;;;;;;;;;10432563;28;20475;-74
2024/01/01 19:04:10;;;;;;;12.80;2.35;;;;;;;;;;10430054;28;20076;-74
2024/01/01 19:09:17;;;;;;;9.93;2.08;;;;;;;;;;10428088;28;20574;-74
2024/01/01 19:14:20;;;;;;;10.35;2.50;;;;;;;;;;10426637;28;20052;-74
2024/01/01 19:19:24;;;;;;;3.97;1.88;;;;;;;;;;10435229;28;20542;-74
2024/01/01 19:24:29;;;;;;;7.53;2.40;;;;;;;;;;10431711;28;20722;-74
2024/01/01 19:29:32;;;;;;;7.82;2.00;;;;;;;;;;10428908;28;20152;-74
2024/01/01 19:34:36;;;;;;;4.93;1.60;;;;;;;;;;10441421;28;20045;-74
2024/01/01 19:39:40;;;;;;;4.32;1.30;;;;;;;;;;10435812;28;20242;-73
2024/01/01 19:44:44;;;;;;;3.47;1.23;;;;;;;;;;10436397;28;20079;-73
2024/01/01 19:49:47;;;;;;;4.57;1.65;;;;;;;;;;10436054;28;20072;-74
2024/01/01 19:54:53;;;;;;;3.15;1.25;;;;;;;;;;10440096;28;20045;-73
2024/01/01 19:59:56;;;;;;;2.25;1.20;;;;;;;;;;10438992;28;20075;-74
2024/01/01 20:05:00;;;;;;;4.43;1.38;;;;;;;;;;10436593;28;20072;-74
2024/01/01 20:10:05;;;;;;;3.00;1.35;;;;;;;;;;10429438;28;20047;-75
2024/01/01 20:15:10;;;;;;;;;;;;;;;;;;10436493;28;20486;-74
2024/01/01 20:20:13;;;;;;;2.70;1.30;;;;;;;;;;10440590;28;19947;-74
2024/01/01 20:25:20;;;;;;;2.63;1.20;;;;;;;;;;10443159;28;20125;-74
2024/01/01 20:30:24;;;;;;;4.90;1.30;;;;;;;;;;10431603;28;20045;-74
2024/01/01 20:35:27;;;;;;;4.40;1.65;;;;;;;;;;10432229;28;20140;-74
2024/01/01 20:40:31;;;;;;;4.57;1.83;;;;;;;;;;10432348;28;20545;-74
2024/01/01 20:45:35;;;;;;;5.72;2.20;;;;;;;;;;10439077;28;20043;-74
2024/01/01 20:50:41;;;;;;;3.30;1.42;;;;;;;;;;10437733;28;20060;-74
2024/01/01 20:55:45;;;;;;;6.03;1.52;;;;;;;;;;10436496;28;20216;-74
2024/01/01 21:00:49;;;;;;;4.45;1.15;;;;;;;;;;10409102;28;20041;-74
2024/01/01 21:05:52;;;;;;;8.35;1.45;;;;;;;;;;10432003;28;20037;-74
2024/01/01 21:10:56;;;;;;;3.58;1.27;;;;;;;;;;10431776;28;20140;-73
2024/01/01 21:16:00;;;;;;;4.40;1.27;;;;;;;;;;10443123;28;20037;-74
2024/01/01 21:21:04;;;;;;;2.85;1.13;;;;;;;;;;10431449;28;20056;-74
2024/01/01 21:26:09;;;;;;;2.53;0.98;;;;;;;;;;10432451;28;20043;-74
2024/01/01 21:31:12;;;;;;;5.10;2.00;;;;;;;;;;10441697;23;20049;-74
2024/01/01 21:36:16;;;;;;;3.90;1.67;;;;;;;;;;10441126;28;20043;-75
2024/01/01 21:41:26;;;;;;;3.67;1.70;;;;;;;;;;10426753;28;20052;-74
2024/01/01 21:46:30;;;;;;;7.18;1.25;;;;;;;;;;10439657;28;20481;-73
2024/01/01 21:51:33;;;;;;;4.22;1.38;;;;;;;;;;10432689;28;20067;-72
2024/01/01 21:56:38;;;;;;;2.95;1.27;;;;;;;;;;10443990;28;20045;-74
2024/01/01 22:01:42;;;;;;;4.35;1.05;;;;;;;;;;10433900;28;20049;-72
2024/01/01 22:06:45;;;;;;;2.75;1.23;;;;;;;;;;10439320;28;20037;-73
2024/01/01 22:11:50;;;;;;;3.97;1.02;;;;;;;;;;10437758;28;20081;-73
2024/01/01 22:16:53;;;;;;;3.40;1.02;;;;;;;;;;10439973;28;20589;-73
2024/01/01 22:21:56;;;;;;;2.42;0.90;;;;;;;;;;10417590;28;20046;-73
2024/01/01 22:27:01;;;;;;;4.47;1.23;;;;;;;;;;10420725;28;20668;-73
2024/01/01 22:32:06;;;;;;;2.60;1.35;;;;;;;;;;10405230;28;20100;-73
2024/01/01 22:37:09;;;;;;;3.25;0.90;;;;;;;;;;10432409;28;20402;-73
2024/01/01 22:42:14;;;;;;;2.85;1.33;;;;;;;;;;10438886;28;20048;-72
2024/01/01 22:47:18;;;;;;;3.42;1.15;;;;;;;;;;10438351;28;20056;-73
2024/01/01 22:52:21;;;;;;;2.45;0.73;;;;;;;;;;10438650;28;20061;-73
2024/01/01 22:57:26;;;;;;;3.45;0.75;;;;;;;;;;10433688;28;20434;-73
2024/01/01 23:02:29;;;;;;;2.78;0.77;;;;;;;;;;10439145;28;20045;-73
2024/01/01 23:07:32;;;;;;;6.07;0.88;;;;;;;;;;10436248;28;20094;-73
2024/01/01 23:12:37;;;;;;;1.67;1.00;;;;;;;;;;10444121;28;20055;-72
2024/01/01 23:17:40;;;;;;;2.25;0.82;;;;;;;;;;10448759;28;20621;-73
2024/01/01 23:22:44;;;;;;;1.20;0.90;;;;;;;;;;10442272;28;20064;-73
2024/01/01 23:27:49;;;;;;;1.23;0.77;;;;;;;;;;10443839;28;20056;-73
2024/01/01 23:32:52;;;;;;;1.90;1.10;;;;;;;;;;10442331;28;20037;-72
2024/01/01 23:37:56;;;;;;;4.95;1.15;;;;;;;;;;10435775;28;20115;-73
2024/01/01 23:43:00;;;;;;;2.67;0.88;;;;;;;;;;10424644;28;20050;-73
2024/01/01 23:48:07;;;;;;;2.72;0.88;;;;;;;;;;10439206;28;20451;-73
2024/01/01 23:53:10;;;;;;;;;;;;;;;;;;10438455;28;20033;-72
2024/01/01 23:58:15;;;;;;;1.23;0.95;;;;;;;;;;10424520;28;19939;-72
